createdAt,value
2023-03-03T00:00:09.434Z,98408.81
2023-03-03T00:02:20.784Z,98407.09
2023-03-03T00:04:25.571Z,98408.81
2023-03-03T00:06:32.981Z,98401.13
2023-03-03T00:08:40.562Z,98414.03
2023-03-03T00:10:45.447Z,98404.66
2023-03-03T00:12:51.900Z,98406.38
2023-03-03T00:14:57.272Z,98409.91
2023-03-03T00:17:04.646Z,98412.56
2023-03-03T00:19:17.337Z,98415.13
2023-03-03T00:21:33.892Z,98412.56
2023-03-03T00:23:43.610Z,98412.56
2023-03-03T00:25:52.611Z,98412.53
2023-03-03T00:27:57.562Z,98404.78
2023-03-03T00:30:03.742Z,98408.22
2023-03-03T00:32:27.850Z,98412.50
2023-03-03T00:34:33.371Z,98415.94
2023-03-03T00:36:40.853Z,98415.13
2023-03-03T00:38:49.120Z,98415.97
2023-03-03T00:40:54.263Z,98415.13
2023-03-03T00:43:00.667Z,98415.13
2023-03-03T00:45:11.568Z,98416.94
2023-03-03T00:47:33.441Z,98411.81
2023-03-03T00:49:38.211Z,98419.56
2023-03-03T00:51:46.824Z,98424.78
2023-03-03T00:53:54.191Z,98429.16
2023-03-03T00:55:59.524Z,98422.38
2023-03-03T00:58:04.418Z,98424.06
2023-03-03T01:00:17.843Z,98431.84
2023-03-03T01:02:23.017Z,98436.13
2023-03-03T01:04:27.932Z,98429.28
2023-03-03T01:06:32.704Z,98428.38
2023-03-03T01:08:37.621Z,98421.50
2023-03-03T01:10:51.086Z,98426.59
2023-03-03T01:12:56.122Z,98425.75
2023-03-03T01:15:00.956Z,98422.31
2023-03-03T01:17:06.507Z,98424.88
2023-03-03T01:19:12.393Z,98422.38
2023-03-03T01:21:17.237Z,98421.56
2023-03-03T01:23:22.326Z,98429.28
2023-03-03T01:25:26.972Z,98426.00
2023-03-03T01:27:34.517Z,98424.44
2023-03-03T01:29:39.362Z,98418.50
2023-03-03T01:31:44.261Z,98418.50
2023-03-03T01:33:49.019Z,98432.28
2023-03-03T01:35:53.940Z,98420.28
2023-03-03T01:37:58.814Z,98415.97
2023-03-03T01:40:03.587Z,98411.72
2023-03-03T01:42:09.183Z,98411.78
2023-03-03T01:44:18.960Z,98415.25
2023-03-03T01:46:49.623Z,98417.84
2023-03-03T01:49:03.071Z,98411.00
2023-03-03T01:51:17.641Z,98412.69
2023-03-03T01:53:30.161Z,98415.31
2023-03-03T01:55:39.426Z,98411.84
2023-03-03T01:57:48.874Z,98413.50
2023-03-03T01:59:58.269Z,98406.63
2023-03-03T02:02:03.198Z,98408.34
2023-03-03T02:04:08.358Z,98400.63
2023-03-03T02:06:17.265Z,98407.47
2023-03-03T02:08:28.508Z,98405.78
2023-03-03T02:10:34.379Z,98406.69
2023-03-03T02:12:43.458Z,98409.31
2023-03-03T02:14:48.340Z,98412.84
2023-03-03T02:16:55.761Z,98411.16
2023-03-03T02:19:00.973Z,98408.53
2023-03-03T02:21:10.367Z,98399.97
2023-03-03T02:23:23.703Z,98411.94
2023-03-03T02:25:37.200Z,98410.25
2023-03-03T02:27:44.663Z,98411.06
2023-03-03T02:29:50.403Z,98412.78
2023-03-03T02:31:55.423Z,98417.03
2023-03-03T02:34:01.642Z,98412.78
2023-03-03T02:36:06.717Z,98411.94
2023-03-03T02:38:18.040Z,98413.69
2023-03-03T02:40:28.354Z,98412.84
2023-03-03T02:42:34.884Z,98406.84
2023-03-03T02:44:42.469Z,98407.69
2023-03-03T02:46:49.493Z,98412.81
2023-03-03T02:48:55.093Z,98413.66
2023-03-03T02:50:59.999Z,98408.50
2023-03-03T02:53:04.751Z,98409.34
2023-03-03T02:55:11.372Z,98408.50
2023-03-03T02:57:17.168Z,98405.97
2023-03-03T02:59:22.366Z,98409.41
2023-03-03T03:01:37.052Z,98415.41
2023-03-03T03:03:44.161Z,98412.88
2023-03-03T03:05:49.087Z,98414.59
2023-03-03T03:07:56.826Z,98416.38
2023-03-03T03:10:01.625Z,98423.25
2023-03-03T03:12:09.567Z,98424.19
2023-03-03T03:14:16.324Z,98416.56
2023-03-03T03:16:22.213Z,98416.59
2023-03-03T03:18:30.373Z,98415.66
2023-03-03T03:20:40.199Z,98422.50
2023-03-03T03:22:46.294Z,98425.03
2023-03-03T03:24:51.236Z,98420.78
2023-03-03T03:26:56.080Z,98425.06
2023-03-03T03:29:02.681Z,98436.22
2023-03-03T03:31:08.566Z,98436.25
2023-03-03T03:33:14.018Z,98426.88
2023-03-03T03:35:21.734Z,98426.88
2023-03-03T03:37:26.655Z,98428.59
2023-03-03T03:39:31.553Z,98432.91
2023-03-03T03:41:36.418Z,98432.13
2023-03-03T03:43:41.320Z,98423.56
2023-03-03T03:45:47.426Z,98428.69
2023-03-03T03:47:53.299Z,98432.94
2023-03-03T03:49:58.121Z,98438.97
2023-03-03T03:52:06.029Z,98439.81
2023-03-03T03:54:12.292Z,98436.44
2023-03-03T03:56:17.864Z,98436.44
2023-03-03T03:58:25.721Z,98438.13
2023-03-03T04:00:35.945Z,98439.84
2023-03-03T04:02:41.013Z,98443.34
2023-03-03T04:04:49.862Z,98439.94
2023-03-03T04:06:54.840Z,98434.81
2023-03-03T04:09:02.189Z,98437.38
2023-03-03T04:11:08.347Z,98429.63
2023-03-03T04:13:13.152Z,98431.31
2023-03-03T04:15:20.835Z,98431.31
2023-03-03T04:17:27.097Z,98423.59
2023-03-03T04:19:31.966Z,98427.06
2023-03-03T04:21:36.722Z,98428.81
2023-03-03T04:23:41.749Z,98440.84
2023-03-03T04:25:49.759Z,98439.13
2023-03-03T04:27:54.959Z,98440.78
2023-03-03T04:30:01.193Z,98444.22
2023-03-03T04:32:06.085Z,98444.22
2023-03-03T04:34:11.667Z,98438.22
2023-03-03T04:36:17.502Z,98447.59
2023-03-03T04:38:22.246Z,98451.91
2023-03-03T04:40:28.941Z,98451.91
2023-03-03T04:42:36.427Z,98448.53
2023-03-03T04:44:42.004Z,98451.09
2023-03-03T04:46:46.992Z,98441.72
2023-03-03T04:48:51.916Z,98451.97
2023-03-03T04:50:56.821Z,98457.09
2023-03-03T04:53:01.853Z,98449.38
2023-03-03T04:55:10.275Z,98445.94
2023-03-03T04:57:16.031Z,98445.94
2023-03-03T04:59:23.540Z,98452.81
2023-03-03T05:01:28.564Z,98450.28
2023-03-03T05:03:34.320Z,98453.69
2023-03-03T05:05:39.167Z,98454.56
2023-03-03T05:07:44.000Z,98459.69
2023-03-03T05:09:48.773Z,98453.69
2023-03-03T05:11:53.761Z,98458.91
2023-03-03T05:13:58.620Z,98458.91
2023-03-03T05:16:06.364Z,98462.31
2023-03-03T05:18:11.771Z,98469.19
2023-03-03T05:20:16.852Z,98470.88
2023-03-03T05:22:21.620Z,98469.19
2023-03-03T05:24:26.602Z,98464.91
2023-03-03T05:26:34.418Z,98466.63
2023-03-03T05:28:39.306Z,98463.19
2023-03-03T05:30:44.308Z,98474.34
2023-03-03T05:32:51.697Z,98469.22
2023-03-03T05:34:56.623Z,98466.69
2023-03-03T05:37:01.411Z,98472.69
2023-03-03T05:39:06.298Z,98478.69
2023-03-03T05:41:11.202Z,98473.56
2023-03-03T05:43:16.357Z,98477.00
2023-03-03T05:45:24.412Z,98476.16
2023-03-03T05:47:29.208Z,98495.81
2023-03-03T05:49:36.569Z,98479.56
2023-03-03T05:51:41.822Z,98486.38
2023-03-03T05:53:46.299Z,98492.41
2023-03-03T05:55:51.069Z,98488.16
2023-03-03T05:57:55.868Z,98500.13
2023-03-03T06:00:00.791Z,98492.44
2023-03-03T06:02:05.663Z,98498.41
2023-03-03T06:04:10.658Z,98512.09
2023-03-03T06:06:19.368Z,98509.53
2023-03-03T06:08:24.684Z,98502.69
2023-03-03T06:10:29.492Z,98506.09
2023-03-03T06:12:39.400Z,98509.53
2023-03-03T06:14:44.295Z,98512.09
2023-03-03T06:16:49.495Z,98510.34
2023-03-03T06:18:54.399Z,98518.91
2023-03-03T06:20:59.345Z,98508.66
2023-03-03T06:23:06.915Z,98513.78
2023-03-03T06:25:13.536Z,98518.94
2023-03-03T06:27:21.231Z,98528.34
2023-03-03T06:29:26.108Z,98536.88
2023-03-03T06:31:32.349Z,98537.72
2023-03-03T06:33:38.467Z,98540.28
2023-03-03T06:35:43.236Z,98543.69
2023-03-03T06:37:51.341Z,98547.09
2023-03-03T06:39:58.865Z,98553.09
2023-03-03T06:42:03.705Z,98547.97
2023-03-03T06:44:08.496Z,98548.78
2023-03-03T06:46:13.329Z,98554.78
2023-03-03T06:48:20.952Z,98561.63
2023-03-03T06:50:25.803Z,98557.34
2023-03-03T06:52:31.159Z,98543.59
2023-03-03T06:54:38.941Z,98544.38
2023-03-03T06:56:48.496Z,98553.75
2023-03-03T06:58:56.144Z,98545.13
2023-03-03T07:01:03.004Z,98547.72
2023-03-03T07:03:18.064Z,98550.38
2023-03-03T07:05:23.119Z,98551.22
2023-03-03T07:07:29.209Z,98555.44
2023-03-03T07:09:34.379Z,98564.84
2023-03-03T07:11:41.186Z,98558.81
2023-03-03T07:13:50.906Z,98557.94
2023-03-03T07:15:57.217Z,98563.06
2023-03-03T07:18:02.859Z,98571.63
2023-03-03T07:20:20.694Z,98569.94
2023-03-03T07:22:30.298Z,98569.06
2023-03-03T07:24:35.852Z,98573.41
2023-03-03T07:26:40.734Z,98570.88
2023-03-03T07:28:57.685Z,98575.19
2023-03-03T07:31:02.836Z,98581.19
2023-03-03T07:33:08.736Z,98581.16
2023-03-03T07:35:46.411Z,98588.88
2023-03-03T07:37:51.450Z,98586.31
2023-03-03T07:39:57.127Z,98592.31
2023-03-03T07:42:17.298Z,98590.59
2023-03-03T07:44:34.567Z,98591.44
2023-03-03T07:46:44.447Z,98601.69
2023-03-03T07:48:49.321Z,98600.84
2023-03-03T07:50:54.585Z,98603.38
2023-03-03T07:53:00.210Z,98601.63
2023-03-03T07:55:22.043Z,98603.31
2023-03-03T07:57:30.110Z,98603.28
2023-03-03T07:59:39.876Z,98609.25
2023-03-03T08:01:48.875Z,98613.53
2023-03-03T08:03:54.681Z,98616.91
2023-03-03T08:05:59.586Z,98613.44
2023-03-03T08:08:29.507Z,98615.13
2023-03-03T08:10:43.821Z,98610.84
2023-03-03T08:12:48.622Z,98609.13
2023-03-03T08:14:58.427Z,98612.50
2023-03-03T08:17:04.127Z,98609.84
2023-03-03T08:19:09.789Z,98618.38
2023-03-03T08:21:16.684Z,98608.00
2023-03-03T08:23:22.810Z,98609.66
2023-03-03T08:25:27.658Z,98612.31
2023-03-03T08:27:34.520Z,98611.47
2023-03-03T08:29:39.384Z,98607.03
2023-03-03T08:31:47.202Z,98613.75
2023-03-03T08:33:52.249Z,98612.88
2023-03-03T08:35:57.108Z,98617.16
2023-03-03T08:38:02.159Z,98619.75
2023-03-03T08:40:07.716Z,98624.13
2023-03-03T08:42:14.179Z,98620.59
2023-03-03T08:44:20.818Z,98619.63
2023-03-03T08:46:26.208Z,98626.44
2023-03-03T08:48:35.355Z,98616.03
2023-03-03T08:50:41.272Z,98618.66
2023-03-03T08:52:46.400Z,98617.72
2023-03-03T08:54:51.112Z,98615.91
2023-03-03T08:56:55.907Z,98616.69
2023-03-03T08:59:03.080Z,98614.97
2023-03-03T09:01:08.396Z,98611.47
2023-03-03T09:03:13.236Z,98599.31
2023-03-03T09:05:21.845Z,98606.13
2023-03-03T09:07:27.096Z,98604.34
2023-03-03T09:09:31.810Z,98605.97
2023-03-03T09:11:36.887Z,98599.03
2023-03-03T09:13:41.662Z,98604.94
2023-03-03T09:15:46.822Z,98603.06
2023-03-03T09:17:52.041Z,98596.16
2023-03-03T09:20:02.880Z,98599.63
2023-03-03T09:22:22.446Z,98599.41
2023-03-03T09:24:29.375Z,98600.09
2023-03-03T09:26:45.638Z,98599.03
2023-03-03T09:28:50.516Z,98611.66
2023-03-03T09:30:57.413Z,98600.25
2023-03-03T09:33:02.411Z,98605.94
2023-03-03T09:35:39.101Z,98602.09
2023-03-03T09:37:46.499Z,98608.47
2023-03-03T09:39:53.927Z,98601.63
2023-03-03T09:42:37.184Z,98602.25
2023-03-03T09:45:11.779Z,98606.34
2023-03-03T09:47:33.297Z,98609.69
2023-03-03T09:49:42.118Z,98614.75
2023-03-03T09:52:10.351Z,98612.19
2023-03-03T09:54:29.598Z,98615.19
2023-03-03T09:56:37.589Z,98613.38
2023-03-03T09:58:57.080Z,98610.66
2023-03-03T10:01:14.948Z,98616.81
2023-03-03T10:03:48.382Z,98622.69
2023-03-03T10:06:01.973Z,98628.84
2023-03-03T10:08:24.320Z,98627.22
2023-03-03T10:10:56.395Z,98627.13
2023-03-03T10:13:16.267Z,98621.00
2023-03-03T10:15:35.953Z,98616.66
2023-03-03T10:17:52.359Z,98622.63
2023-03-03T10:20:07.845Z,98619.28
2023-03-03T10:22:24.471Z,98625.91
2023-03-03T10:24:33.745Z,98626.63
2023-03-03T10:27:13.888Z,98622.16
2023-03-03T10:29:37.183Z,98610.22
2023-03-03T10:31:57.481Z,98605.91
2023-03-03T10:34:09.354Z,98605.03
2023-03-03T10:36:30.384Z,98613.75
2023-03-03T10:38:47.675Z,98610.00
2023-03-03T10:41:04.310Z,98612.50
2023-03-03T10:43:31.441Z,98612.59
2023-03-03T10:46:10.448Z,98609.09
2023-03-03T10:48:34.721Z,98618.25
2023-03-03T10:50:52.528Z,98608.38
2023-03-03T10:53:06.336Z,98607.41
2023-03-03T10:55:29.774Z,98613.19
2023-03-03T10:57:42.797Z,98600.84
2023-03-03T11:00:02.611Z,98611.13
2023-03-03T11:02:19.084Z,98605.25
2023-03-03T11:05:02.393Z,98611.75
2023-03-03T11:07:13.102Z,98606.03
2023-03-03T11:09:40.960Z,98608.69
2023-03-03T11:11:55.635Z,98608.31
2023-03-03T11:14:06.861Z,98608.16
2023-03-03T11:16:33.532Z,98608.00
2023-03-03T11:18:53.818Z,98601.88
2023-03-03T11:21:09.252Z,98602.81
2023-03-03T11:23:37.589Z,98595.38
2023-03-03T11:25:47.172Z,98597.78
2023-03-03T11:28:28.267Z,98596.44
2023-03-03T11:31:01.902Z,98601.53
2023-03-03T11:33:15.080Z,98598.28
2023-03-03T11:35:29.487Z,98590.69
2023-03-03T11:37:42.853Z,98592.78
2023-03-03T11:39:48.293Z,98589.19
2023-03-03T11:42:04.902Z,98584.06
2023-03-03T11:44:21.970Z,98578.69
2023-03-03T11:46:33.266Z,98588.97
2023-03-03T11:48:46.651Z,98585.28
2023-03-03T11:51:01.515Z,98586.63
2023-03-03T11:53:27.867Z,98575.94
2023-03-03T11:55:38.994Z,98573.53
2023-03-03T11:57:48.916Z,98571.50
2023-03-03T12:00:09.545Z,98569.47
2023-03-03T12:02:32.539Z,98569.03
2023-03-03T12:04:42.262Z,98565.97
2023-03-03T12:07:16.851Z,98562.41
2023-03-03T12:09:39.617Z,98561.31
2023-03-03T12:11:53.498Z,98561.69
2023-03-03T12:14:05.425Z,98557.16
2023-03-03T12:16:18.856Z,98558.25
2023-03-03T12:18:54.139Z,98555.00
2023-03-03T12:21:16.391Z,98556.13
2023-03-03T12:23:43.039Z,98549.75
2023-03-03T12:25:50.627Z,98550.22
2023-03-03T12:28:01.190Z,98543.13
2023-03-03T12:30:16.492Z,98540.59
2023-03-03T12:32:35.362Z,98536.28
2023-03-03T12:34:46.910Z,98527.63
2023-03-03T12:37:09.736Z,98521.16
2023-03-03T12:39:35.160Z,98521.59
2023-03-03T12:41:48.552Z,98518.97
2023-03-03T12:44:01.093Z,98524.75
2023-03-03T12:46:17.442Z,98513.78
2023-03-03T12:48:24.579Z,98517.34
2023-03-03T12:50:40.501Z,98524.25
2023-03-03T12:52:55.406Z,98518.34
2023-03-03T12:55:21.561Z,98514.06
2023-03-03T12:57:38.558Z,98513.78
2023-03-03T12:59:51.921Z,98507.66
2023-03-03T13:02:09.958Z,98511.41
2023-03-03T13:04:31.668Z,98506.72
2023-03-03T13:06:43.153Z,98507.22
2023-03-03T13:09:04.563Z,98516.38
2023-03-03T13:11:29.201Z,98510.94
2023-03-03T13:13:41.192Z,98514.81
2023-03-03T13:15:55.685Z,98509.16
2023-03-03T13:18:15.986Z,98497.06
2023-03-03T13:20:28.784Z,98503.69
2023-03-03T13:22:40.011Z,98503.50
2023-03-03T13:24:58.140Z,98499.16
2023-03-03T13:27:10.964Z,98507.91
2023-03-03T13:29:22.318Z,98503.25
2023-03-03T13:31:32.749Z,98501.28
2023-03-03T13:33:39.924Z,98497.75
2023-03-03T13:35:48.097Z,98500.34
2023-03-03T13:37:56.774Z,98493.34
2023-03-03T13:40:04.607Z,98494.22
2023-03-03T13:42:21.492Z,98489.97
2023-03-03T13:44:31.768Z,98492.97
2023-03-03T13:46:43.502Z,98489.44
2023-03-03T13:49:13.409Z,98488.53
2023-03-03T13:51:28.553Z,98485.06
2023-03-03T13:53:46.553Z,98484.97
2023-03-03T13:55:59.795Z,98474.47
2023-03-03T13:58:16.673Z,98480.59
2023-03-03T14:00:30.097Z,98469.31
2023-03-03T14:02:57.114Z,98464.88
2023-03-03T14:05:06.206Z,98472.44
2023-03-03T14:07:24.357Z,98470.69
2023-03-03T14:09:52.249Z,98480.25
2023-03-03T14:12:06.760Z,98471.78
2023-03-03T14:14:25.088Z,98474.34
2023-03-03T14:16:42.238Z,98476.03
2023-03-03T14:18:56.876Z,98469.63
2023-03-03T14:21:10.695Z,98465.78
2023-03-03T14:23:20.077Z,98470.22
2023-03-03T14:25:24.907Z,98466.63
2023-03-03T14:27:31.536Z,98462.22
2023-03-03T14:29:38.939Z,98467.06
2023-03-03T14:31:45.819Z,98465.06
2023-03-03T14:34:02.235Z,98458.13
2023-03-03T14:36:16.376Z,98460.84
2023-03-03T14:38:23.209Z,98463.72
2023-03-03T14:40:34.201Z,98463.16
2023-03-03T14:42:48.839Z,98454.63
2023-03-03T14:44:59.395Z,98453.34
2023-03-03T14:47:08.719Z,98447.22
2023-03-03T14:49:18.703Z,98460.91
2023-03-03T14:51:29.208Z,98458.69
2023-03-03T14:53:37.773Z,98458.66
2023-03-03T14:55:44.687Z,98447.00
2023-03-03T14:57:51.395Z,98454.25
2023-03-03T15:00:06.974Z,98459.50
2023-03-03T15:02:35.075Z,98455.31
2023-03-03T15:04:41.294Z,98452.75
2023-03-03T15:06:48.286Z,98455.94
2023-03-03T15:08:53.240Z,98456.06
2023-03-03T15:10:59.996Z,98459.47
2023-03-03T15:13:35.707Z,98458.16
2023-03-03T15:15:55.236Z,98461.41
2023-03-03T15:18:03.610Z,98456.31
2023-03-03T15:20:25.437Z,98458.09
2023-03-03T15:22:51.644Z,98458.34
2023-03-03T15:25:03.960Z,98459.31
2023-03-03T15:27:15.207Z,98460.06
2023-03-03T15:29:25.533Z,98464.56
2023-03-03T15:31:42.460Z,98457.78
2023-03-03T15:33:52.945Z,98463.91
2023-03-03T15:36:06.422Z,98460.56
2023-03-03T15:38:24.503Z,98456.38
2023-03-03T15:40:31.584Z,98453.66
2023-03-03T15:42:40.056Z,98459.78
2023-03-03T15:44:58.652Z,98455.31
2023-03-03T15:47:20.993Z,98449.81
2023-03-03T15:49:47.283Z,98448.97
2023-03-03T15:52:03.695Z,98452.94
2023-03-03T15:54:33.042Z,98448.53
2023-03-03T15:56:44.037Z,98459.03
2023-03-03T15:59:16.721Z,98450.38
2023-03-03T16:01:30.079Z,98451.25
2023-03-03T16:03:45.785Z,98457.50
2023-03-03T16:05:56.586Z,98464.75
2023-03-03T16:08:06.288Z,98464.84
2023-03-03T16:10:22.794Z,98475.38
2023-03-03T16:12:39.269Z,98476.41
2023-03-03T16:15:01.829Z,98475.66
2023-03-03T16:17:18.690Z,98483.34
2023-03-03T16:19:38.758Z,98476.66
2023-03-03T16:22:10.322Z,98476.81
2023-03-03T16:24:26.921Z,98485.50
2023-03-03T16:26:42.937Z,98480.50
2023-03-03T16:29:03.840Z,98477.28
2023-03-03T16:31:14.412Z,98490.41
2023-03-03T16:33:25.391Z,98486.88
2023-03-03T16:35:38.668Z,98488.81
2023-03-03T16:37:56.688Z,98494.09
2023-03-03T16:40:12.108Z,98501.91
2023-03-03T16:42:25.346Z,98503.66
2023-03-03T16:44:42.463Z,98501.91
2023-03-03T16:46:50.580Z,98505.50
2023-03-03T16:49:06.249Z,98504.00
2023-03-03T16:51:30.089Z,98508.41
2023-03-03T16:53:49.268Z,98514.75
2023-03-03T16:56:04.510Z,98509.06
2023-03-03T16:58:23.713Z,98522.31
2023-03-03T17:00:32.637Z,98525.75
2023-03-03T17:03:06.117Z,98518.88
2023-03-03T17:05:23.501Z,98525.00
2023-03-03T17:07:44.617Z,98536.25
2023-03-03T17:10:05.559Z,98534.63
2023-03-03T17:12:25.918Z,98533.19
2023-03-03T17:14:53.281Z,98539.25
2023-03-03T17:17:02.620Z,98541.09
2023-03-03T17:19:24.053Z,98547.16
2023-03-03T17:21:40.257Z,98541.97
2023-03-03T17:23:58.008Z,98552.28
2023-03-03T17:26:14.705Z,98553.13
2023-03-03T17:28:33.511Z,98557.41
2023-03-03T17:30:45.371Z,98563.56
2023-03-03T17:33:16.833Z,98564.44
2023-03-03T17:35:34.041Z,98562.78
2023-03-03T17:37:46.672Z,98571.59
2023-03-03T17:40:16.769Z,98571.69
2023-03-03T17:42:28.910Z,98573.56
2023-03-03T17:44:40.837Z,98576.16
2023-03-03T17:46:51.578Z,98578.75
2023-03-03T17:49:12.143Z,98582.28
2023-03-03T17:51:27.669Z,98583.25
2023-03-03T17:53:44.424Z,98585.06
2023-03-03T17:56:10.243Z,98589.47
2023-03-03T17:58:33.077Z,98592.16
2023-03-03T18:00:51.920Z,98594.75
2023-03-03T18:03:29.916Z,98589.69
2023-03-03T18:05:47.816Z,98593.19
2023-03-03T18:08:06.079Z,98602.63
2023-03-03T18:10:52.413Z,98600.06
2023-03-03T18:13:08.624Z,98600.13
2023-03-03T18:15:33.851Z,98607.84
2023-03-03T18:17:47.676Z,98601.88
2023-03-03T18:20:07.290Z,98608.03
2023-03-03T18:22:17.153Z,98606.41
2023-03-03T18:24:38.225Z,98609.97
2023-03-03T18:26:44.456Z,98615.25
2023-03-03T18:28:53.739Z,98610.06
2023-03-03T18:31:02.877Z,98608.31
2023-03-03T18:33:16.365Z,98604.94
2023-03-03T18:35:30.772Z,98616.09
2023-03-03T18:37:45.230Z,98609.25
2023-03-03T18:39:52.009Z,98607.63
2023-03-03T18:42:14.008Z,98605.09
2023-03-03T18:44:33.068Z,98606.91
2023-03-03T18:47:01.909Z,98614.81
2023-03-03T18:49:08.426Z,98612.41
2023-03-03T18:51:13.239Z,98610.81
2023-03-03T18:53:28.758Z,98613.38
2023-03-03T18:55:43.343Z,98610.00
2023-03-03T18:58:19.279Z,98610.81
2023-03-03T19:00:32.159Z,98616.94
2023-03-03T19:02:46.465Z,98626.50
2023-03-03T19:04:56.930Z,98620.47
2023-03-03T19:07:27.052Z,98618.78
2023-03-03T19:09:52.559Z,98615.34
2023-03-03T19:11:58.678Z,98617.13
2023-03-03T19:14:25.729Z,98618.03
2023-03-03T19:16:41.971Z,98618.06
2023-03-03T19:19:03.191Z,98626.75
2023-03-03T19:21:10.430Z,98610.44
2023-03-03T19:23:21.299Z,98615.66
2023-03-03T19:25:32.468Z,98619.34
2023-03-03T19:27:44.115Z,98627.22
2023-03-03T19:30:10.185Z,98628.13
2023-03-03T19:32:30.671Z,98622.16
2023-03-03T19:34:46.031Z,98622.22
2023-03-03T19:37:03.790Z,98621.50
2023-03-03T19:39:40.772Z,98621.50
2023-03-03T19:41:59.672Z,98625.03
2023-03-03T19:44:16.767Z,98625.88
2023-03-03T19:46:36.625Z,98631.81
2023-03-03T19:48:52.751Z,98636.16
2023-03-03T19:51:09.278Z,98642.09
2023-03-03T19:53:25.367Z,98640.41
2023-03-03T19:55:41.342Z,98644.72
2023-03-03T19:57:48.988Z,98644.00
2023-03-03T20:00:03.233Z,98640.63
2023-03-03T20:02:39.661Z,98645.78
2023-03-03T20:05:00.399Z,98650.97
2023-03-03T20:07:15.969Z,98648.47
2023-03-03T20:09:35.248Z,98657.13
2023-03-03T20:11:56.746Z,98656.31
2023-03-03T20:14:09.584Z,98651.25
2023-03-03T20:16:27.900Z,98657.25
2023-03-03T20:19:01.608Z,98656.47
2023-03-03T20:21:26.275Z,98669.44
2023-03-03T20:23:36.718Z,98664.31
2023-03-03T20:25:49.237Z,98669.56
2023-03-03T20:28:03.785Z,98678.19
2023-03-03T20:30:16.523Z,98674.94
2023-03-03T20:32:33.003Z,98676.84
2023-03-03T20:34:48.574Z,98676.00
2023-03-03T20:37:05.994Z,98671.72
2023-03-03T20:39:16.720Z,98677.72
2023-03-03T20:41:34.507Z,98680.34
2023-03-03T20:43:54.845Z,98682.97
2023-03-03T20:46:09.896Z,98677.84
2023-03-03T20:48:28.441Z,98690.78
2023-03-03T20:50:43.380Z,98689.97
2023-03-03T20:53:02.512Z,98699.47
2023-03-03T20:55:17.327Z,98693.47
2023-03-03T20:57:33.928Z,98693.50
2023-03-03T20:59:45.865Z,98696.09
2023-03-03T21:01:56.458Z,98699.56
2023-03-03T21:04:23.241Z,98709.03
2023-03-03T21:06:41.065Z,98693.59
2023-03-03T21:08:53.441Z,98698.78
2023-03-03T21:11:02.085Z,98697.09
2023-03-03T21:13:29.528Z,98697.09
2023-03-03T21:15:37.164Z,98708.28
2023-03-03T21:17:42.651Z,98706.63
2023-03-03T21:19:47.464Z,98698.88
2023-03-03T21:21:52.647Z,98704.06
2023-03-03T21:23:59.780Z,98703.25
2023-03-03T21:26:04.589Z,98700.75
2023-03-03T21:28:21.524Z,98695.59
2023-03-03T21:30:26.425Z,98701.63
2023-03-03T21:32:40.566Z,98701.63
2023-03-03T21:34:45.456Z,98701.69
2023-03-03T21:36:51.565Z,98693.97
2023-03-03T21:39:02.199Z,98691.41
2023-03-03T21:41:07.686Z,98689.69
2023-03-03T21:43:39.306Z,98688.84
2023-03-03T21:45:46.405Z,98693.22
2023-03-03T21:47:51.330Z,98696.78
2023-03-03T21:49:56.131Z,98699.31
2023-03-03T21:52:02.102Z,98693.28
2023-03-03T21:54:09.556Z,98690.72
2023-03-03T21:56:16.059Z,98695.00
2023-03-03T21:58:21.204Z,98694.16
2023-03-03T22:00:26.538Z,98690.81
2023-03-03T22:02:33.861Z,98693.41
2023-03-03T22:04:39.164Z,98692.56
2023-03-03T22:06:43.722Z,98693.44
2023-03-03T22:08:48.486Z,98687.44
2023-03-03T22:10:56.638Z,98698.63
2023-03-03T22:13:01.666Z,98698.66
2023-03-03T22:15:07.088Z,98699.59
2023-03-03T22:17:12.051Z,98703.03
2023-03-03T22:19:16.910Z,98701.34
2023-03-03T22:21:21.716Z,98703.03
2023-03-03T22:23:26.509Z,98705.66
2023-03-03T22:25:31.484Z,98703.09
2023-03-03T22:27:39.002Z,98700.53
2023-03-03T22:29:43.831Z,98700.53
2023-03-03T22:31:48.607Z,98704.00
2023-03-03T22:33:53.968Z,98709.13
2023-03-03T22:35:58.588Z,98698.06
2023-03-03T22:38:03.570Z,98713.53
2023-03-03T22:40:09.612Z,98704.16
2023-03-03T22:42:17.410Z,98708.50
2023-03-03T22:44:24.895Z,98711.09
2023-03-03T22:46:29.840Z,98715.41
2023-03-03T22:48:35.538Z,98717.16
2023-03-03T22:50:42.893Z,98712.03
2023-03-03T22:52:48.284Z,98709.47
2023-03-03T22:54:53.080Z,98716.31
2023-03-03T22:56:58.056Z,98717.19
2023-03-03T22:59:02.846Z,98715.53
2023-03-03T23:01:10.792Z,98713.78
2023-03-03T23:03:16.106Z,98718.94
2023-03-03T23:05:21.168Z,98706.97
2023-03-03T23:07:26.502Z,98712.97
2023-03-03T23:09:34.283Z,98713.84
2023-03-03T23:11:39.075Z,98706.09
2023-03-03T23:13:43.923Z,98712.13
2023-03-03T23:15:48.817Z,98717.28
2023-03-03T23:17:56.331Z,98713.00
2023-03-03T23:20:01.053Z,98714.72
2023-03-03T23:22:05.812Z,98713.88
2023-03-03T23:24:11.217Z,98713.88
2023-03-03T23:26:16.007Z,98708.75
2023-03-03T23:28:20.819Z,98718.16
2023-03-03T23:30:26.259Z,98719.88
2023-03-03T23:32:32.285Z,98721.59
2023-03-03T23:34:39.736Z,98725.88
2023-03-03T23:36:44.626Z,98720.72
2023-03-03T23:38:49.508Z,98724.16
2023-03-03T23:40:54.324Z,98728.44
2023-03-03T23:42:59.236Z,98720.69
2023-03-03T23:45:04.090Z,98713.84
2023-03-03T23:47:09.990Z,98714.69
2023-03-03T23:49:14.774Z,98718.97
2023-03-03T23:51:22.155Z,98719.00
2023-03-03T23:53:26.910Z,98722.41
2023-03-03T23:55:31.771Z,98720.69
2023-03-03T23:57:36.648Z,98719.84
2023-03-03T23:59:41.452Z,98721.56
